Terminal Aerodrome Forecast
Issued by NWS

Home | Current Version | Previous Version | Text Only | Print | Product List | Glossary On
Versions: 1 2 3 4 5 6 7 8 9 10 11 12 13 14 15 16 17 18 19 20 21 22 23
000
FTUS46 KSTO 011700
TAFSCK
TAF
KSCK 011729Z 0118/0218 13006KT 2SM BR SCT100 SCT250
      TEMPO 0119/0121 4SM BR
     FM012100 VRB04KT P6SM SCT250=

USA.gov is the U.S. government's official web portal to all federal, state and local government web resources and services.